sensor_id;sensor_type;location;lat;lon;timestamp;temperature;humidity
20422;DHT22;10370;53.102;18.034;2022-08-01T00:00:20;12.00;99.90
20422;DHT22;10370;53.102;18.034;2022-08-01T00:05:40;11.90;99.90
20422;DHT22;10370;53.102;18.034;2022-08-01T00:11:04;11.80;99.90
20422;DHT22;10370;53.102;18.034;2022-08-01T00:16:25;11.80;99.90
20422;DHT22;10370;53.102;18.034;2022-08-01T00:21:47;11.80;99.90
20422;DHT22;10370;53.102;18.034;2022-08-01T00:27:11;11.70;99.90
20422;DHT22;10370;53.102;18.034;2022-08-01T00:32:32;11.70;99.90
20422;DHT22;10370;53.102;18.034;2022-08-01T00:37:53;11.70;99.90
20422;DHT22;10370;53.102;18.034;2022-08-01T00:43:14;11.60;99.90
20422;DHT22;10370;53.102;18.034;2022-08-01T00:48:35;11.50;99.90
20422;DHT22;10370;53.102;18.034;2022-08-01T00:53:56;11.50;99.90
20422;DHT22;10370;53.102;18.034;2022-08-01T00:59:17;11.40;99.90
20422;DHT22;10370;53.102;18.034;2022-08-01T01:04:38;11.30;99.90
20422;DHT22;10370;53.102;18.034;2022-08-01T01:10:11;11.30;99.90
20422;DHT22;10370;53.102;18.034;2022-08-01T01:15:50;11.30;99.90
20422;DHT22;10370;53.102;18.034;2022-08-01T01:27:22;11.30;99.90
20422;DHT22;10370;53.102;18.034;2022-08-01T01:32:44;11.30;99.90
20422;DHT22;10370;53.102;18.034;2022-08-01T01:38:21;11.30;99.90
20422;DHT22;10370;53.102;18.034;2022-08-01T01:43:45;11.20;99.90
20422;DHT22;10370;53.102;18.034;2022-08-01T01:49:08;11.20;99.90
20422;DHT22;10370;53.102;18.034;2022-08-01T01:54:46;11.10;99.90
20422;DHT22;10370;53.102;18.034;2022-08-01T02:00:11;11.00;99.90
20422;DHT22;10370;53.102;18.034;2022-08-01T02:05:33;11.00;99.90
20422;DHT22;10370;53.102;18.034;2022-08-01T02:10:57;10.80;99.90
20422;DHT22;10370;53.102;18.034;2022-08-01T02:16:40;10.50;99.90
20422;DHT22;10370;53.102;18.034;2022-08-01T02:22:10;10.30;99.90
20422;DHT22;10370;53.102;18.034;2022-08-01T02:27:40;10.40;99.90
20422;DHT22;10370;53.102;18.034;2022-08-01T02:33:06;10.50;99.90
20422;DHT22;10370;53.102;18.034;2022-08-01T02:38:38;10.50;99.90
20422;DHT22;10370;53.102;18.034;2022-08-01T02:44:03;10.50;99.90
20422;DHT22;10370;53.102;18.034;2022-08-01T02:49:27;10.50;99.90
20422;DHT22;10370;53.102;18.034;2022-08-01T02:54:50;10.40;99.90
20422;DHT22;10370;53.102;18.034;2022-08-01T03:00:14;10.40;99.90
20422;DHT22;10370;53.102;18.034;2022-08-01T03:05:35;10.40;99.90
20422;DHT22;10370;53.102;18.034;2022-08-01T03:10:59;10.30;99.90
20422;DHT22;10370;53.102;18.034;2022-08-01T03:16:22;10.20;99.90
20422;DHT22;10370;53.102;18.034;2022-08-01T03:21:45;10.20;99.90
20422;DHT22;10370;53.102;18.034;2022-08-01T03:27:09;10.40;99.90
20422;DHT22;10370;53.102;18.034;2022-08-01T03:32:30;10.50;99.90
20422;DHT22;10370;53.102;18.034;2022-08-01T03:37:54;10.70;99.90
20422;DHT22;10370;53.102;18.034;2022-08-01T03:43:41;10.80;99.90
20422;DHT22;10370;53.102;18.034;2022-08-01T03:49:08;10.80;99.90
20422;DHT22;10370;53.102;18.034;2022-08-01T03:54:33;10.90;99.90
20422;DHT22;10370;53.102;18.034;2022-08-01T03:59:57;11.10;99.90
20422;DHT22;10370;53.102;18.034;2022-08-01T04:05:19;11.40;99.90
20422;DHT22;10370;53.102;18.034;2022-08-01T04:10:41;11.70;99.90
20422;DHT22;10370;53.102;18.034;2022-08-01T04:16:02;12.10;99.90
20422;DHT22;10370;53.102;18.034;2022-08-01T04:21:26;12.40;99.90
20422;DHT22;10370;53.102;18.034;2022-08-01T04:26:50;12.70;99.90
20422;DHT22;10370;53.102;18.034;2022-08-01T04:32:12;12.90;99.90
20422;DHT22;10370;53.102;18.034;2022-08-01T04:37:36;13.50;99.90
20422;DHT22;10370;53.102;18.034;2022-08-01T04:42:57;13.80;99.90
20422;DHT22;10370;53.102;18.034;2022-08-01T04:48:19;14.00;99.90
20422;DHT22;10370;53.102;18.034;2022-08-01T04:53:43;13.80;99.90
20422;DHT22;10370;53.102;18.034;2022-08-01T04:59:04;14.00;99.90
20422;DHT22;10370;53.102;18.034;2022-08-01T05:04:45;14.10;99.90
20422;DHT22;10370;53.102;18.034;2022-08-01T05:10:06;14.20;99.90
20422;DHT22;10370;53.102;18.034;2022-08-01T05:20:48;14.30;99.90
20422;DHT22;10370;53.102;18.034;2022-08-01T05:26:11;14.40;99.90
20422;DHT22;10370;53.102;18.034;2022-08-01T05:31:34;14.40;99.90
20422;DHT22;10370;53.102;18.034;2022-08-01T05:36:55;14.40;99.90
20422;DHT22;10370;53.102;18.034;2022-08-01T05:42:17;14.50;99.90
20422;DHT22;10370;53.102;18.034;2022-08-01T05:47:38;14.70;99.90
20422;DHT22;10370;53.102;18.034;2022-08-01T05:53:02;14.70;99.90
20422;DHT22;10370;53.102;18.034;2022-08-01T05:58:23;14.70;99.90
20422;DHT22;10370;53.102;18.034;2022-08-01T06:03:44;14.80;99.90
20422;DHT22;10370;53.102;18.034;2022-08-01T06:09:06;14.80;99.90
20422;DHT22;10370;53.102;18.034;2022-08-01T06:14:27;14.90;99.90
20422;DHT22;10370;53.102;18.034;2022-08-01T06:19:48;15.10;99.90
20422;DHT22;10370;53.102;18.034;2022-08-01T06:25:09;15.30;99.90
20422;DHT22;10370;53.102;18.034;2022-08-01T06:30:30;15.50;99.90
20422;DHT22;10370;53.102;18.034;2022-08-01T06:35:51;15.70;99.90
20422;DHT22;10370;53.102;18.034;2022-08-01T06:41:12;15.90;99.90
20422;DHT22;10370;53.102;18.034;2022-08-01T06:46:34;16.20;99.90
20422;DHT22;10370;53.102;18.034;2022-08-01T06:51:55;16.30;99.90
20422;DHT22;10370;53.102;18.034;2022-08-01T06:57:16;16.50;99.90
20422;DHT22;10370;53.102;18.034;2022-08-01T07:02:37;16.70;99.90
20422;DHT22;10370;53.102;18.034;2022-08-01T07:07:59;16.70;99.90
20422;DHT22;10370;53.102;18.034;2022-08-01T07:13:20;16.90;99.90
20422;DHT22;10370;53.102;18.034;2022-08-01T07:18:45;16.90;99.90
20422;DHT22;10370;53.102;18.034;2022-08-01T07:24:07;16.90;99.90
20422;DHT22;10370;53.102;18.034;2022-08-01T07:29:29;17.10;99.90
20422;DHT22;10370;53.102;18.034;2022-08-01T07:34:50;17.20;99.90
20422;DHT22;10370;53.102;18.034;2022-08-01T07:40:11;17.30;99.90
20422;DHT22;10370;53.102;18.034;2022-08-01T07:45:32;17.40;99.90
20422;DHT22;10370;53.102;18.034;2022-08-01T07:50:53;17.50;99.90
20422;DHT22;10370;53.102;18.034;2022-08-01T07:56:14;17.50;99.90
20422;DHT22;10370;53.102;18.034;2022-08-01T08:01:35;17.40;99.90
20422;DHT22;10370;53.102;18.034;2022-08-01T08:06:56;17.50;99.90
20422;DHT22;10370;53.102;18.034;2022-08-01T08:12:18;17.50;99.90
20422;DHT22;10370;53.102;18.034;2022-08-01T08:17:48;17.60;99.90
20422;DHT22;10370;53.102;18.034;2022-08-01T08:23:14;17.70;99.90
20422;DHT22;10370;53.102;18.034;2022-08-01T08:29:03;18.00;99.90
20422;DHT22;10370;53.102;18.034;2022-08-01T08:34:25;18.20;99.90
20422;DHT22;10370;53.102;18.034;2022-08-01T08:39:48;18.50;99.90
20422;DHT22;10370;53.102;18.034;2022-08-01T08:45:11;18.80;99.90
20422;DHT22;10370;53.102;18.034;2022-08-01T08:50:32;18.80;99.90
20422;DHT22;10370;53.102;18.034;2022-08-01T08:55:55;18.80;99.90
20422;DHT22;10370;53.102;18.034;2022-08-01T09:01:17;18.80;99.90
20422;DHT22;10370;53.102;18.034;2022-08-01T09:06:40;18.90;99.90
20422;DHT22;10370;53.102;18.034;2022-08-01T09:12:01;18.80;99.90
20422;DHT22;10370;53.102;18.034;2022-08-01T09:17:22;18.70;99.90
20422;DHT22;10370;53.102;18.034;2022-08-01T09:22:44;18.80;99.90
20422;DHT22;10370;53.102;18.034;2022-08-01T09:28:06;18.70;99.90
20422;DHT22;10370;53.102;18.034;2022-08-01T09:39:13;18.70;99.90
20422;DHT22;10370;53.102;18.034;2022-08-01T09:44:40;18.90;99.90
20422;DHT22;10370;53.102;18.034;2022-08-01T09:50:03;19.00;99.90
20422;DHT22;10370;53.102;18.034;2022-08-01T09:55:29;19.30;99.90
20422;DHT22;10370;53.102;18.034;2022-08-01T10:00:59;19.60;99.90
20422;DHT22;10370;53.102;18.034;2022-08-01T10:06:21;19.90;99.90
20422;DHT22;10370;53.102;18.034;2022-08-01T10:11:44;20.10;99.90
20422;DHT22;10370;53.102;18.034;2022-08-01T10:17:08;20.40;99.90
20422;DHT22;10370;53.102;18.034;2022-08-01T10:22:31;20.60;99.90
20422;DHT22;10370;53.102;18.034;2022-08-01T10:27:56;20.80;99.90
20422;DHT22;10370;53.102;18.034;2022-08-01T10:33:22;21.30;99.90
20422;DHT22;10370;53.102;18.034;2022-08-01T10:39:05;21.60;99.90
20422;DHT22;10370;53.102;18.034;2022-08-01T10:50:17;21.90;99.90
20422;DHT22;10370;53.102;18.034;2022-08-01T10:55:51;22.10;99.90
20422;DHT22;10370;53.102;18.034;2022-08-01T11:01:21;22.20;99.90
20422;DHT22;10370;53.102;18.034;2022-08-01T11:07:02;22.30;99.90
20422;DHT22;10370;53.102;18.034;2022-08-01T11:12:41;22.70;99.90
20422;DHT22;10370;53.102;18.034;2022-08-01T11:23:50;23.10;99.90
20422;DHT22;10370;53.102;18.034;2022-08-01T11:29:15;23.10;99.90
20422;DHT22;10370;53.102;18.034;2022-08-01T11:34:56;22.80;99.90
20422;DHT22;10370;53.102;18.034;2022-08-01T11:40:20;22.50;99.90
20422;DHT22;10370;53.102;18.034;2022-08-01T11:45:52;22.30;99.90
20422;DHT22;10370;53.102;18.034;2022-08-01T11:51:16;22.20;99.90
20422;DHT22;10370;53.102;18.034;2022-08-01T11:56:44;22.40;99.90
20422;DHT22;10370;53.102;18.034;2022-08-01T12:02:19;22.60;99.90
20422;DHT22;10370;53.102;18.034;2022-08-01T12:07:51;22.90;99.90
20422;DHT22;10370;53.102;18.034;2022-08-01T12:13:12;23.40;99.90
20422;DHT22;10370;53.102;18.034;2022-08-01T12:18:41;23.70;99.90
20422;DHT22;10370;53.102;18.034;2022-08-01T12:24:03;24.00;99.90
20422;DHT22;10370;53.102;18.034;2022-08-01T12:29:41;24.20;99.90
20422;DHT22;10370;53.102;18.034;2022-08-01T12:35:07;24.30;99.90
20422;DHT22;10370;53.102;18.034;2022-08-01T12:40:37;24.30;99.90
20422;DHT22;10370;53.102;18.034;2022-08-01T12:46:04;24.40;99.90
20422;DHT22;10370;53.102;18.034;2022-08-01T12:51:25;24.30;99.90
20422;DHT22;10370;53.102;18.034;2022-08-01T12:56:46;24.30;99.90
20422;DHT22;10370;53.102;18.034;2022-08-01T13:02:10;24.50;99.90
20422;DHT22;10370;53.102;18.034;2022-08-01T13:13:07;24.80;99.90
20422;DHT22;10370;53.102;18.034;2022-08-01T13:18:32;24.70;99.90
20422;DHT22;10370;53.102;18.034;2022-08-01T13:29:33;25.00;99.90
20422;DHT22;10370;53.102;18.034;2022-08-01T13:35:04;25.10;99.90
20422;DHT22;10370;53.102;18.034;2022-08-01T13:40:27;25.10;99.90
20422;DHT22;10370;53.102;18.034;2022-08-01T13:45:48;25.20;99.90
20422;DHT22;10370;53.102;18.034;2022-08-01T13:51:09;25.30;99.90
20422;DHT22;10370;53.102;18.034;2022-08-01T13:56:41;25.30;99.90
20422;DHT22;10370;53.102;18.034;2022-08-01T14:02:02;25.20;99.90
20422;DHT22;10370;53.102;18.034;2022-08-01T14:07:24;25.20;99.90
20422;DHT22;10370;53.102;18.034;2022-08-01T14:12:44;25.20;99.90
20422;DHT22;10370;53.102;18.034;2022-08-01T14:18:08;25.20;99.90
20422;DHT22;10370;53.102;18.034;2022-08-01T14:23:30;25.10;99.90
20422;DHT22;10370;53.102;18.034;2022-08-01T14:28:51;25.00;99.90
20422;DHT22;10370;53.102;18.034;2022-08-01T14:34:13;25.00;99.90
20422;DHT22;10370;53.102;18.034;2022-08-01T14:39:34;25.10;99.90
20422;DHT22;10370;53.102;18.034;2022-08-01T14:44:55;25.00;99.90
20422;DHT22;10370;53.102;18.034;2022-08-01T14:50:16;25.00;99.90
20422;DHT22;10370;53.102;18.034;2022-08-01T14:55:38;25.10;99.90
20422;DHT22;10370;53.102;18.034;2022-08-01T15:01:02;25.10;99.90
20422;DHT22;10370;53.102;18.034;2022-08-01T15:06:24;25.10;99.90
20422;DHT22;10370;53.102;18.034;2022-08-01T15:11:45;25.10;99.90
20422;DHT22;10370;53.102;18.034;2022-08-01T15:17:08;25.10;99.90
20422;DHT22;10370;53.102;18.034;2022-08-01T15:22:29;25.00;99.90
20422;DHT22;10370;53.102;18.034;2022-08-01T15:27:50;25.10;99.90
20422;DHT22;10370;53.102;18.034;2022-08-01T15:33:11;25.10;99.90
20422;DHT22;10370;53.102;18.034;2022-08-01T15:38:33;25.10;99.90
20422;DHT22;10370;53.102;18.034;2022-08-01T15:43:54;25.10;99.90
20422;DHT22;10370;53.102;18.034;2022-08-01T15:49:16;25.00;99.90
20422;DHT22;10370;53.102;18.034;2022-08-01T15:54:38;25.00;99.90
20422;DHT22;10370;53.102;18.034;2022-08-01T16:00:01;24.90;99.90
20422;DHT22;10370;53.102;18.034;2022-08-01T16:05:22;24.90;99.90
20422;DHT22;10370;53.102;18.034;2022-08-01T16:10:43;24.80;99.90
20422;DHT22;10370;53.102;18.034;2022-08-01T16:16:07;24.70;99.90
20422;DHT22;10370;53.102;18.034;2022-08-01T16:21:28;24.60;99.90
20422;DHT22;10370;53.102;18.034;2022-08-01T16:26:49;24.60;99.90
20422;DHT22;10370;53.102;18.034;2022-08-01T16:32:10;24.50;99.90
20422;DHT22;10370;53.102;18.034;2022-08-01T16:37:35;24.50;99.90
20422;DHT22;10370;53.102;18.034;2022-08-01T16:42:59;24.40;99.90
20422;DHT22;10370;53.102;18.034;2022-08-01T16:48:21;24.30;99.90
20422;DHT22;10370;53.102;18.034;2022-08-01T16:53:58;24.30;99.90
20422;DHT22;10370;53.102;18.034;2022-08-01T16:59:20;24.20;99.90
20422;DHT22;10370;53.102;18.034;2022-08-01T17:04:41;24.10;99.90
20422;DHT22;10370;53.102;18.034;2022-08-01T17:10:02;24.10;99.90
20422;DHT22;10370;53.102;18.034;2022-08-01T17:15:24;24.00;99.90
20422;DHT22;10370;53.102;18.034;2022-08-01T17:20:47;23.90;99.90
20422;DHT22;10370;53.102;18.034;2022-08-01T17:26:11;23.90;99.90
20422;DHT22;10370;53.102;18.034;2022-08-01T17:31:41;23.80;99.90
20422;DHT22;10370;53.102;18.034;2022-08-01T17:37:07;23.70;99.90
20422;DHT22;10370;53.102;18.034;2022-08-01T17:47:59;23.40;99.90
20422;DHT22;10370;53.102;18.034;2022-08-01T17:53:20;23.30;99.90
20422;DHT22;10370;53.102;18.034;2022-08-01T17:58:47;23.20;99.90
20422;DHT22;10370;53.102;18.034;2022-08-01T18:04:19;23.10;99.90
20422;DHT22;10370;53.102;18.034;2022-08-01T18:09:54;23.00;99.90
20422;DHT22;10370;53.102;18.034;2022-08-01T18:15:16;22.90;99.90
20422;DHT22;10370;53.102;18.034;2022-08-01T18:20:36;22.80;99.90
20422;DHT22;10370;53.102;18.034;2022-08-01T18:25:59;22.60;99.90
20422;DHT22;10370;53.102;18.034;2022-08-01T18:31:21;22.60;99.90
20422;DHT22;10370;53.102;18.034;2022-08-01T18:36:44;22.40;99.90
20422;DHT22;10370;53.102;18.034;2022-08-01T18:42:06;22.30;99.90
20422;DHT22;10370;53.102;18.034;2022-08-01T18:47:28;22.20;99.90
20422;DHT22;10370;53.102;18.034;2022-08-01T18:52:52;22.00;99.90
20422;DHT22;10370;53.102;18.034;2022-08-01T18:58:14;21.90;99.90
20422;DHT22;10370;53.102;18.034;2022-08-01T19:03:41;21.80;99.90
20422;DHT22;10370;53.102;18.034;2022-08-01T19:09:04;21.70;99.90
20422;DHT22;10370;53.102;18.034;2022-08-01T19:14:27;21.50;99.90
20422;DHT22;10370;53.102;18.034;2022-08-01T19:19:54;21.40;99.90
20422;DHT22;10370;53.102;18.034;2022-08-01T19:25:16;21.30;99.90
20422;DHT22;10370;53.102;18.034;2022-08-01T19:30:37;21.10;99.90
20422;DHT22;10370;53.102;18.034;2022-08-01T19:35:58;21.10;99.90
20422;DHT22;10370;53.102;18.034;2022-08-01T19:41:24;21.00;99.90
20422;DHT22;10370;53.102;18.034;2022-08-01T19:53:52;21.00;99.90
20422;DHT22;10370;53.102;18.034;2022-08-01T19:59:21;21.10;99.90
20422;DHT22;10370;53.102;18.034;2022-08-01T20:04:42;21.10;99.90
20422;DHT22;10370;53.102;18.034;2022-08-01T20:10:04;21.10;99.90
20422;DHT22;10370;53.102;18.034;2022-08-01T20:15:25;21.20;99.90
20422;DHT22;10370;53.102;18.034;2022-08-01T20:20:47;21.20;99.90
20422;DHT22;10370;53.102;18.034;2022-08-01T20:26:08;21.20;99.90
20422;DHT22;10370;53.102;18.034;2022-08-01T20:31:29;21.20;99.90
20422;DHT22;10370;53.102;18.034;2022-08-01T20:37:05;21.20;99.90
20422;DHT22;10370;53.102;18.034;2022-08-01T20:42:30;21.30;99.90
20422;DHT22;10370;53.102;18.034;2022-08-01T20:47:51;21.40;99.90
20422;DHT22;10370;53.102;18.034;2022-08-01T20:53:15;21.40;99.90
20422;DHT22;10370;53.102;18.034;2022-08-01T20:59:18;21.40;99.90
20422;DHT22;10370;53.102;18.034;2022-08-01T21:04:51;21.30;99.90
20422;DHT22;10370;53.102;18.034;2022-08-01T21:10:15;21.30;99.90
20422;DHT22;10370;53.102;18.034;2022-08-01T21:21:02;21.20;99.90
20422;DHT22;10370;53.102;18.034;2022-08-01T21:26:24;21.20;99.90
20422;DHT22;10370;53.102;18.034;2022-08-01T21:31:46;21.10;99.90
20422;DHT22;10370;53.102;18.034;2022-08-01T21:37:28;21.10;99.90
20422;DHT22;10370;53.102;18.034;2022-08-01T21:42:52;21.10;99.90
20422;DHT22;10370;53.102;18.034;2022-08-01T21:48:14;21.10;99.90
20422;DHT22;10370;53.102;18.034;2022-08-01T21:53:51;21.10;99.90
20422;DHT22;10370;53.102;18.034;2022-08-01T22:05:02;21.10;99.90
20422;DHT22;10370;53.102;18.034;2022-08-01T22:10:24;21.00;99.90
20422;DHT22;10370;53.102;18.034;2022-08-01T22:15:45;21.00;99.90
20422;DHT22;10370;53.102;18.034;2022-08-01T22:21:07;21.00;99.90
20422;DHT22;10370;53.102;18.034;2022-08-01T22:26:28;20.90;99.90
20422;DHT22;10370;53.102;18.034;2022-08-01T22:31:50;20.80;99.90
20422;DHT22;10370;53.102;18.034;2022-08-01T22:37:16;20.80;99.90
20422;DHT22;10370;53.102;18.034;2022-08-01T22:42:57;20.70;99.90
20422;DHT22;10370;53.102;18.034;2022-08-01T22:48:24;20.70;99.90
20422;DHT22;10370;53.102;18.034;2022-08-01T22:59:18;20.60;99.90
20422;DHT22;10370;53.102;18.034;2022-08-01T23:04:45;20.50;99.90
20422;DHT22;10370;53.102;18.034;2022-08-01T23:10:07;20.50;99.90
20422;DHT22;10370;53.102;18.034;2022-08-01T23:15:29;20.40;99.90
20422;DHT22;10370;53.102;18.034;2022-08-01T23:20:52;20.40;99.90
20422;DHT22;10370;53.102;18.034;2022-08-01T23:26:16;20.30;99.90
20422;DHT22;10370;53.102;18.034;2022-08-01T23:31:38;20.30;99.90
20422;DHT22;10370;53.102;18.034;2022-08-01T23:37:11;20.20;99.90
20422;DHT22;10370;53.102;18.034;2022-08-01T23:42:33;20.20;99.90
20422;DHT22;10370;53.102;18.034;2022-08-01T23:47:54;20.20;99.90
20422;DHT22;10370;53.102;18.034;2022-08-01T23:53:15;20.10;99.90
20422;DHT22;10370;53.102;18.034;2022-08-01T23:58:36;20.10;99.90
